Bryn Mawr, Washington
Current Conditions -  °F | °C
As of 12:53 AM on Wednesday 22 Oct 2014 (Local Time) from KRNT Reporting Station
Overcast Overcast  
Wind Chill: 56°   Ceiling: 10000
Heat Index: 56°   Visibility: 10mi
Dew Point: 49°   Wind: 5mph
Humidity: 77%   Direction: NA
Pressure: 29.7"   Gusts: NA
Location:  47.4965°N, 122.251°W
Report Text: KRNT 220753Z AUTO VRB04KT 10SM OVC100 13/09 A2970 RMK AO2 RAE20B39E53 SLP064 P0000 T01330094 401720117
Loading
Personal Weather Stations






























Interactive Weather Map
Tropical Storm Tracking
New forecast layout! Learn more

10-Day Weather Forecast

Advertisements
Track Severe Weather on mobile